createdAt,value
2019-06-01T00:01:18.740Z,6.00
2019-06-01T00:03:46.962Z,6.40
2019-06-01T00:06:18.029Z,6.20
2019-06-01T00:08:47.216Z,6.27
2019-06-01T00:11:15.412Z,6.20
2019-06-01T00:13:59.155Z,6.43
2019-06-01T00:16:27.340Z,6.27
2019-06-01T00:18:57.017Z,6.37
2019-06-01T00:21:25.252Z,5.93
2019-06-01T00:23:56.370Z,6.23
2019-06-01T00:26:24.907Z,6.50
2019-06-01T00:28:56.231Z,6.50
2019-06-01T00:31:26.044Z,6.30
2019-06-01T00:33:54.202Z,5.97
2019-06-01T00:36:22.354Z,6.07
2019-06-01T00:38:50.508Z,6.10
2019-06-01T00:41:20.512Z,6.73
2019-06-01T00:43:48.895Z,6.50
2019-06-01T00:46:17.245Z,6.07
2019-06-01T00:48:45.845Z,5.93
2019-06-01T00:51:14.155Z,5.80
2019-06-01T00:53:43.281Z,6.07
2019-06-01T00:56:11.632Z,6.10
2019-06-01T00:58:39.781Z,6.20
2019-06-01T01:01:07.923Z,5.87
2019-06-01T01:03:36.060Z,6.23
2019-06-01T01:06:04.203Z,6.30
2019-06-01T01:08:32.363Z,6.43
2019-06-01T01:11:00.580Z,6.43
2019-06-01T01:13:28.817Z,6.27
2019-06-01T01:15:57.012Z,6.20
2019-06-01T01:18:25.168Z,6.17
2019-06-01T01:20:54.179Z,5.93
2019-06-01T01:23:22.502Z,6.53
2019-06-01T01:25:50.762Z,6.40
2019-06-01T01:28:18.908Z,6.33
2019-06-01T01:31:05.539Z,6.20
2019-06-01T01:33:16.999Z,5.87
2019-06-01T01:35:45.155Z,6.27
2019-06-01T01:38:13.330Z,6.30
2019-06-01T01:40:41.478Z,6.13
2019-06-01T01:43:09.794Z,6.60
2019-06-01T01:45:38.010Z,6.00
2019-06-01T01:48:06.219Z,5.97
2019-06-01T01:50:34.382Z,6.50
2019-06-01T01:53:03.335Z,6.37
2019-06-01T01:55:31.769Z,5.93
2019-06-01T01:57:59.984Z,6.47
2019-06-01T02:00:38.703Z,6.30
2019-06-01T02:03:07.411Z,6.00
2019-06-01T02:05:35.536Z,6.20
2019-06-01T02:08:04.184Z,6.13
2019-06-01T02:10:33.927Z,6.13
2019-06-01T02:13:02.286Z,6.03
2019-06-01T02:15:31.522Z,5.70
2019-06-01T02:18:00.595Z,6.17
2019-06-01T02:20:29.012Z,5.90
2019-06-01T02:22:57.161Z,5.90
2019-06-01T02:25:25.308Z,6.50
2019-06-01T02:27:53.468Z,5.83
2019-06-01T02:30:21.709Z,6.20
2019-06-01T02:32:49.923Z,5.73
2019-06-01T02:35:18.174Z,6.03
2019-06-01T02:37:46.317Z,5.73
2019-06-01T02:40:14.695Z,6.33
2019-06-01T02:42:42.855Z,6.80
2019-06-01T02:45:11.698Z,5.70
2019-06-01T02:47:40.145Z,5.93
2019-06-01T02:50:08.652Z,6.20
2019-06-01T02:52:38.811Z,5.90
2019-06-01T02:55:10.731Z,6.20
2019-06-01T02:57:38.905Z,6.03
2019-06-01T03:00:07.410Z,5.90
2019-06-01T03:02:35.638Z,6.20
2019-06-01T03:05:05.582Z,6.00
2019-06-01T03:07:34.616Z,5.90
2019-06-01T03:10:03.379Z,5.60
2019-06-01T03:12:31.969Z,6.20
2019-06-01T03:15:02.643Z,6.20
2019-06-01T03:17:31.987Z,5.80
2019-06-01T03:20:02.761Z,6.17
2019-06-01T03:22:33.030Z,5.70
2019-06-01T03:25:03.773Z,5.80
2019-06-01T03:27:33.373Z,6.80
2019-06-01T03:30:05.319Z,5.40
2019-06-01T03:32:36.682Z,5.57
2019-06-01T03:35:02.952Z,5.83
2019-06-01T03:37:31.203Z,5.40
2019-06-01T03:39:59.414Z,5.47
2019-06-01T03:42:27.547Z,5.07
2019-06-01T03:44:55.714Z,5.70
2019-06-01T03:47:23.865Z,5.50
2019-06-01T03:49:52.005Z,5.43
2019-06-01T03:52:20.273Z,5.17
2019-06-01T03:54:48.737Z,5.30
2019-06-01T03:57:17.041Z,5.33
2019-06-01T03:59:45.266Z,5.90
2019-06-01T04:02:13.440Z,5.33
2019-06-01T04:04:41.607Z,5.50
2019-06-01T04:07:10.755Z,5.60
2019-06-01T04:09:39.022Z,5.20
2019-06-01T04:12:07.694Z,5.20
2019-06-01T04:14:35.895Z,5.63
2019-06-01T04:17:04.223Z,5.27
2019-06-01T04:19:32.505Z,5.20
2019-06-01T04:22:01.833Z,5.33
2019-06-01T04:24:30.157Z,5.10
2019-06-01T04:26:58.450Z,5.17
2019-06-01T04:29:26.579Z,5.33
2019-06-01T04:31:54.792Z,5.43
2019-06-01T04:34:23.034Z,5.67
2019-06-01T04:36:52.452Z,5.30
2019-06-01T04:39:22.642Z,4.97
2019-06-01T04:41:50.546Z,5.50
2019-06-01T04:44:18.764Z,5.00
2019-06-01T04:46:48.441Z,4.90
2019-06-01T04:49:16.643Z,5.13
2019-06-01T04:51:44.788Z,4.90
2019-06-01T04:54:14.434Z,5.23
2019-06-01T04:56:42.876Z,5.10
2019-06-01T04:59:11.020Z,5.50
2019-06-01T05:01:39.235Z,4.67
2019-06-01T05:04:07.400Z,5.23
2019-06-01T05:06:35.566Z,4.90
2019-06-01T05:09:05.286Z,4.70
2019-06-01T05:11:33.502Z,5.50
2019-06-01T05:14:01.699Z,18.70
2019-06-01T05:16:29.858Z,4.50
2019-06-01T05:18:58.103Z,18.00
2019-06-01T05:21:26.244Z,8.80
2019-06-01T05:23:55.939Z,18.97
2019-06-01T05:26:24.092Z,16.40
2019-06-01T05:28:52.251Z,10.40
2019-06-01T05:31:24.926Z,13.57
2019-06-01T05:33:50.320Z,17.30
2019-06-01T05:36:18.496Z,16.50
2019-06-01T05:38:46.639Z,18.00
2019-06-01T05:41:15.033Z,23.37
2019-06-01T05:43:43.752Z,14.97
2019-06-01T05:46:11.915Z,16.23
2019-06-01T05:48:40.215Z,20.13
2019-06-01T05:51:08.485Z,18.20
2019-06-01T05:53:36.714Z,11.40
2019-06-01T05:56:04.859Z,13.53
2019-06-01T05:58:33.027Z,16.20
2019-06-01T06:01:26.750Z,14.97
2019-06-01T06:03:54.875Z,22.83
2019-06-01T06:06:23.084Z,18.50
2019-06-01T06:08:51.334Z,22.67
2019-06-01T06:11:19.714Z,17.70
2019-06-01T06:13:47.878Z,17.60
2019-06-01T06:16:16.055Z,10.47
2019-06-01T06:18:44.307Z,20.77
2019-06-01T06:21:12.469Z,17.73
2019-06-01T06:23:40.646Z,20.60
2019-06-01T06:26:08.809Z,18.07
2019-06-01T06:28:36.983Z,13.50
2019-06-01T06:31:05.194Z,23.03
2019-06-01T06:33:36.775Z,23.07
2019-06-01T06:36:03.379Z,19.47
2019-06-01T06:38:31.531Z,18.93
2019-06-01T06:40:59.686Z,17.77
2019-06-01T06:43:32.909Z,20.47
2019-06-01T06:45:57.804Z,16.47
2019-06-01T06:48:25.970Z,20.43
2019-06-01T06:50:54.186Z,13.47
2019-06-01T06:53:28.498Z,15.63
2019-06-01T06:55:52.236Z,14.80
2019-06-01T06:58:21.024Z,9.73
2019-06-01T07:00:49.724Z,15.83
2019-06-01T07:03:18.920Z,10.57
2019-06-01T07:05:47.249Z,14.90
2019-06-01T07:08:15.727Z,12.93
2019-06-01T07:10:43.940Z,13.50
2019-06-01T07:13:12.091Z,10.00
2019-06-01T07:15:43.188Z,9.70
2019-06-01T07:18:11.406Z,11.90
2019-06-01T07:20:40.025Z,9.37
2019-06-01T07:23:08.244Z,9.77
2019-06-01T07:25:38.347Z,9.97
2019-06-01T07:28:06.520Z,8.93
2019-06-01T07:30:49.735Z,8.20
2019-06-01T07:33:04.620Z,7.17
2019-06-01T07:35:32.824Z,5.57
2019-06-01T07:38:00.968Z,6.07
2019-06-01T07:40:29.136Z,6.77
2019-06-01T07:42:57.284Z,6.87
2019-06-01T07:45:25.741Z,4.73
2019-06-01T07:47:55.083Z,5.17
2019-06-01T07:50:23.939Z,4.43
2019-06-01T07:52:52.177Z,3.57
2019-06-01T07:55:21.367Z,5.93
2019-06-01T07:57:49.940Z,3.50
2019-06-01T08:00:18.104Z,4.70
2019-06-01T08:02:46.277Z,3.57
2019-06-01T08:05:14.580Z,3.27
2019-06-01T08:07:44.373Z,4.07
2019-06-01T08:10:13.141Z,3.60
2019-06-01T08:12:42.660Z,3.87
2019-06-01T08:15:11.038Z,3.43
2019-06-01T08:17:39.175Z,3.40
2019-06-01T08:20:11.901Z,3.90
2019-06-01T08:22:38.962Z,4.67
2019-06-01T08:25:07.397Z,3.20
2019-06-01T08:27:44.416Z,4.47
2019-06-01T08:30:13.877Z,4.30
2019-06-01T08:32:42.016Z,4.43
2019-06-01T08:35:10.987Z,5.73
2019-06-01T08:37:39.143Z,4.67
2019-06-01T08:40:08.258Z,5.73
2019-06-01T08:42:36.482Z,4.37
2019-06-01T08:45:06.170Z,4.73
2019-06-01T08:47:34.368Z,5.22
2019-06-01T08:50:05.453Z,3.67
2019-06-01T08:52:34.303Z,2.80
2019-06-01T08:55:02.575Z,3.77
2019-06-01T08:57:32.426Z,4.55
2019-06-01T09:00:00.959Z,4.55
2019-06-01T09:02:29.172Z,4.22
2019-06-01T09:04:57.945Z,3.52
2019-06-01T09:07:26.892Z,3.80
2019-06-01T09:09:55.286Z,4.85
2019-06-01T09:12:23.486Z,3.95
2019-06-01T09:14:51.640Z,3.10
2019-06-01T09:17:20.367Z,5.10
2019-06-01T09:19:50.199Z,4.45
2019-06-01T09:22:18.970Z,5.47
2019-06-01T09:24:47.224Z,4.90
2019-06-01T09:27:15.374Z,4.67
2019-06-01T09:29:44.735Z,3.62
2019-06-01T09:32:16.502Z,4.70
2019-06-01T09:34:45.219Z,5.50
2019-06-01T09:37:14.079Z,4.00
2019-06-01T09:39:42.999Z,3.45
2019-06-01T09:42:14.311Z,3.95
2019-06-01T09:44:43.113Z,3.50
2019-06-01T09:47:11.910Z,3.90
2019-06-01T09:49:43.856Z,3.83
2019-06-01T09:52:15.558Z,4.45
2019-06-01T09:54:44.589Z,3.22
2019-06-01T09:57:16.428Z,3.62
2019-06-01T09:59:45.188Z,3.55
2019-06-01T10:02:15.541Z,3.15
2019-06-01T10:04:47.190Z,3.65
2019-06-01T10:07:18.011Z,3.60
2019-06-01T10:09:46.798Z,2.90
2019-06-01T10:12:15.655Z,2.60
2019-06-01T10:14:44.464Z,2.67
2019-06-01T10:17:14.999Z,2.95
2019-06-01T10:19:43.821Z,2.80
2019-06-01T10:22:12.651Z,2.20
2019-06-01T10:24:41.523Z,2.50
2019-06-01T10:27:10.242Z,2.20
2019-06-01T10:29:39.963Z,2.40
2019-06-01T10:32:08.996Z,3.45
2019-06-01T10:34:39.980Z,2.90
2019-06-01T10:37:08.752Z,3.22
2019-06-01T10:39:37.478Z,2.75
2019-06-01T10:42:06.258Z,2.65
2019-06-01T10:44:38.960Z,2.27
2019-06-01T10:47:05.457Z,2.58
2019-06-01T10:49:34.175Z,3.37
2019-06-01T10:52:02.983Z,2.60
2019-06-01T10:54:32.865Z,2.40
2019-06-01T10:57:02.072Z,2.20
2019-06-01T10:59:30.782Z,2.45
2019-06-01T11:01:59.509Z,2.00
2019-06-01T11:04:28.306Z,2.10
2019-06-01T11:06:57.104Z,2.12
2019-06-01T11:09:25.967Z,3.00
2019-06-01T11:11:54.767Z,3.20
2019-06-01T11:14:23.506Z,2.20
2019-06-01T11:16:56.198Z,1.80
2019-06-01T11:19:22.671Z,2.37
2019-06-01T11:21:51.507Z,3.10
2019-06-01T11:24:23.467Z,1.87
2019-06-01T11:26:55.407Z,2.02
2019-06-01T11:31:05.647Z,1.80
2019-06-01T11:33:21.941Z,4.65
2019-06-01T11:35:06.586Z,3.85
2019-06-01T11:37:38.477Z,3.22
2019-06-01T11:40:07.373Z,2.33
2019-06-01T11:42:36.870Z,3.47
2019-06-01T11:45:06.326Z,2.92
2019-06-01T11:47:35.051Z,2.77
2019-06-01T11:50:05.547Z,2.00
2019-06-01T11:52:34.968Z,1.90
2019-06-01T11:55:05.379Z,1.87
2019-06-01T11:57:35.211Z,2.70
2019-06-01T12:00:08.659Z,3.90
2019-06-01T12:02:37.521Z,2.40
2019-06-01T12:05:06.965Z,3.52
2019-06-01T12:07:35.747Z,3.25
2019-06-01T12:10:05.687Z,2.98
2019-06-01T12:12:35.899Z,3.05
2019-06-01T12:15:05.204Z,2.98
2019-06-01T12:17:33.982Z,1.87
2019-06-01T12:20:03.489Z,1.70
2019-06-01T12:22:32.187Z,2.52
2019-06-01T12:25:00.921Z,2.65
2019-06-01T12:27:29.633Z,2.52
2019-06-01T12:29:58.443Z,1.72
2019-06-01T12:32:27.302Z,1.60
2019-06-01T12:34:56.050Z,3.17
2019-06-01T12:37:39.943Z,1.60
2019-06-01T12:39:55.345Z,3.87
2019-06-01T12:42:24.133Z,1.70
2019-06-01T12:44:53.064Z,2.92
2019-06-01T12:47:21.774Z,2.10
2019-06-01T12:49:50.535Z,1.40
2019-06-01T12:52:19.265Z,1.67
2019-06-01T12:54:49.025Z,3.55
2019-06-01T12:57:23.367Z,1.47
2019-06-01T12:59:53.134Z,3.87
2019-06-01T13:02:22.019Z,2.58
2019-06-01T13:04:50.799Z,2.62
2019-06-01T13:07:19.696Z,2.40
2019-06-01T13:09:48.638Z,2.40
2019-06-01T13:12:17.409Z,4.92
2019-06-01T13:14:47.172Z,2.22
2019-06-01T13:17:16.092Z,2.15
2019-06-01T13:19:45.278Z,1.87
2019-06-01T13:22:14.367Z,4.92
2019-06-01T13:24:45.763Z,2.00
2019-06-01T13:27:14.710Z,1.92
2019-06-01T13:29:43.725Z,2.15
2019-06-01T13:32:12.578Z,1.62
2019-06-01T13:34:42.520Z,2.00
2019-06-01T13:37:11.439Z,2.80
2019-06-01T13:39:40.192Z,2.98
2019-06-01T13:42:08.912Z,2.85
2019-06-01T13:44:37.701Z,1.80
2019-06-01T13:47:06.417Z,3.65
2019-06-01T13:49:35.153Z,2.42
2019-06-01T13:52:03.950Z,2.45
2019-06-01T13:54:32.698Z,2.58
2019-06-01T13:57:01.442Z,4.10
2019-06-01T13:59:30.194Z,1.90
2019-06-01T14:01:59.061Z,2.00
2019-06-01T14:04:27.839Z,1.87
2019-06-01T14:06:56.557Z,2.95
2019-06-01T14:09:25.449Z,2.33
2019-06-01T14:11:55.449Z,3.92
2019-06-01T14:14:24.393Z,2.00
2019-06-01T14:16:53.603Z,2.42
2019-06-01T14:19:22.546Z,2.30
2019-06-01T14:21:52.311Z,2.60
2019-06-01T14:24:21.239Z,2.05
2019-06-01T14:26:50.140Z,1.90
2019-06-01T14:29:18.940Z,2.22
2019-06-01T14:31:48.495Z,1.75
2019-06-01T14:34:17.290Z,1.80
2019-06-01T14:36:46.482Z,2.27
2019-06-01T14:39:15.336Z,2.00
2019-06-01T14:41:44.079Z,1.70
2019-06-01T14:44:12.811Z,2.00
2019-06-01T14:46:53.393Z,1.80
2019-06-01T14:49:12.054Z,1.80
2019-06-01T14:51:40.803Z,1.80
2019-06-01T14:54:09.574Z,2.87
2019-06-01T14:56:42.407Z,4.15
2019-06-01T14:59:11.140Z,2.95
2019-06-01T15:01:39.856Z,2.27
2019-06-01T15:04:08.597Z,1.90
2019-06-01T15:06:37.381Z,1.80
2019-06-01T15:09:17.685Z,2.80
2019-06-01T15:11:37.773Z,3.10
2019-06-01T15:14:06.567Z,3.27
2019-06-01T15:16:35.306Z,2.20
2019-06-01T15:19:04.191Z,2.60
2019-06-01T15:21:32.959Z,2.17
2019-06-01T15:24:02.323Z,2.62
2019-06-01T15:26:31.245Z,2.15
2019-06-01T15:28:59.955Z,2.08
2019-06-01T15:31:28.734Z,2.65
2019-06-01T15:33:59.494Z,2.30
2019-06-01T15:36:27.957Z,2.00
2019-06-01T15:38:59.776Z,2.42
2019-06-01T15:41:28.752Z,2.20
2019-06-01T15:43:57.536Z,2.37
2019-06-01T15:46:26.249Z,2.00
2019-06-01T15:48:56.107Z,2.55
2019-06-01T15:51:25.019Z,2.15
2019-06-01T15:53:54.832Z,2.30
2019-06-01T15:56:23.839Z,3.12
2019-06-01T15:58:55.035Z,2.67
2019-06-01T16:01:23.155Z,2.25
2019-06-01T16:03:53.196Z,2.15
2019-06-01T16:06:22.126Z,2.10
2019-06-01T16:08:50.905Z,2.05
2019-06-01T16:11:19.607Z,2.77
2019-06-01T16:13:48.534Z,2.70
2019-06-01T16:16:17.388Z,2.40
2019-06-01T16:18:46.321Z,2.30
2019-06-01T16:21:15.171Z,2.17
2019-06-01T16:23:49.699Z,2.12
2019-06-01T16:26:17.351Z,2.35
2019-06-01T16:28:46.076Z,2.05
2019-06-01T16:31:16.071Z,1.80
2019-06-01T16:33:44.862Z,2.00
2019-06-01T16:36:16.509Z,2.65
2019-06-01T16:38:45.240Z,2.05
2019-06-01T16:41:17.164Z,2.35
2019-06-01T16:43:46.193Z,2.08
2019-06-01T16:46:20.359Z,2.47
2019-06-01T16:48:49.085Z,2.12
2019-06-01T16:51:20.590Z,2.72
2019-06-01T16:53:49.342Z,2.60
2019-06-01T16:56:18.114Z,2.40
2019-06-01T16:58:46.836Z,2.75
2019-06-01T17:01:18.600Z,2.87
2019-06-01T17:03:47.362Z,2.70
2019-06-01T17:06:16.156Z,2.60
2019-06-01T17:08:45.205Z,2.77
2019-06-01T17:11:14.196Z,2.42
2019-06-01T17:13:42.989Z,2.20
2019-06-01T17:16:11.715Z,2.60
2019-06-01T17:18:40.440Z,2.52
2019-06-01T17:21:09.224Z,2.30
2019-06-01T17:23:38.012Z,2.20
2019-06-01T17:26:07.587Z,2.22
2019-06-01T17:28:37.351Z,2.50
2019-06-01T17:31:09.028Z,2.50
2019-06-01T17:33:37.879Z,3.08
2019-06-01T17:36:06.833Z,3.12
2019-06-01T17:38:35.599Z,3.35
2019-06-01T17:41:04.510Z,2.83
2019-06-01T17:43:33.295Z,2.80
2019-06-01T17:46:02.781Z,2.65
2019-06-01T17:48:31.693Z,2.75
2019-06-01T17:51:00.475Z,2.87
2019-06-01T17:53:29.303Z,2.72
2019-06-01T17:55:58.053Z,2.33
2019-06-01T17:58:26.851Z,2.50
2019-06-01T18:00:55.590Z,2.67
2019-06-01T18:03:24.384Z,2.65
2019-06-01T18:05:53.151Z,2.58
2019-06-01T18:08:21.890Z,2.50
2019-06-01T18:10:54.466Z,2.87
2019-06-01T18:13:21.263Z,2.40
2019-06-01T18:15:50.337Z,2.50
2019-06-01T18:18:19.134Z,2.70
2019-06-01T18:20:47.852Z,2.58
2019-06-01T18:23:16.586Z,2.60
2019-06-01T18:25:45.322Z,3.08
2019-06-01T18:28:19.431Z,2.90
2019-06-01T18:30:46.013Z,4.15
2019-06-01T18:33:14.732Z,2.87
2019-06-01T18:35:43.486Z,3.00
2019-06-01T18:38:13.027Z,3.12
2019-06-01T18:40:44.445Z,4.17
2019-06-01T18:43:14.804Z,2.70
2019-06-01T18:45:46.944Z,3.10
2019-06-01T18:48:16.631Z,3.02
2019-06-01T18:50:45.500Z,2.70
2019-06-01T18:53:17.051Z,2.90
2019-06-01T18:55:45.794Z,3.62
2019-06-01T18:58:17.472Z,2.75
2019-06-01T19:00:46.926Z,2.52
2019-06-01T19:03:15.712Z,2.27
2019-06-01T19:05:44.464Z,2.37
2019-06-01T19:08:16.191Z,2.35
2019-06-01T19:10:45.066Z,2.35
2019-06-01T19:13:16.381Z,2.40
2019-06-01T19:15:45.240Z,2.40
2019-06-01T19:18:17.096Z,2.70
2019-06-01T19:20:46.128Z,2.45
2019-06-01T19:23:14.964Z,2.40
2019-06-01T19:25:43.756Z,2.33
2019-06-01T19:28:15.263Z,2.27
2019-06-01T19:30:44.236Z,2.42
2019-06-01T19:33:16.856Z,2.47
2019-06-01T19:35:44.248Z,2.25
2019-06-01T19:38:15.498Z,2.55
2019-06-01T19:40:44.489Z,2.40
2019-06-01T19:43:15.516Z,2.27
2019-06-01T19:45:43.945Z,2.40
2019-06-01T19:48:14.506Z,2.30
2019-06-01T19:50:42.205Z,2.37
2019-06-01T19:53:14.771Z,2.47
2019-06-01T19:55:43.417Z,2.72
2019-06-01T19:58:14.285Z,2.10
2019-06-01T20:00:43.583Z,2.17
2019-06-01T20:03:14.425Z,2.50
2019-06-01T20:05:42.258Z,2.42
2019-06-01T20:08:11.936Z,3.08
2019-06-01T20:10:40.475Z,2.10
2019-06-01T20:13:10.963Z,2.42
2019-06-01T20:15:39.869Z,2.58
2019-06-01T20:18:08.727Z,2.80
2019-06-01T20:20:37.464Z,2.55
2019-06-01T20:23:06.366Z,2.65
2019-06-01T20:25:35.514Z,2.93
2019-06-01T20:28:03.963Z,2.80
2019-06-01T20:30:32.165Z,2.47
2019-06-01T20:33:00.317Z,2.67
2019-06-01T20:35:28.531Z,2.37
2019-06-01T20:37:56.683Z,2.50
2019-06-01T20:40:24.931Z,2.85
2019-06-01T20:42:53.147Z,2.62
2019-06-01T20:45:22.769Z,2.63
2019-06-01T20:47:51.114Z,2.97
2019-06-01T20:50:20.721Z,2.77
2019-06-01T20:52:50.852Z,2.60
2019-06-01T20:55:19.127Z,2.27
2019-06-01T20:57:50.274Z,2.70
2019-06-01T21:00:20.097Z,3.53
2019-06-01T21:02:48.329Z,2.98
2019-06-01T21:05:17.769Z,3.67
2019-06-01T21:07:46.151Z,2.70
2019-06-01T21:10:18.247Z,2.87
2019-06-01T21:12:46.687Z,3.17
2019-06-01T21:15:17.338Z,3.23
2019-06-01T21:17:49.676Z,3.20
2019-06-01T21:20:22.300Z,2.70
2019-06-01T21:22:45.795Z,3.10
2019-06-01T21:25:16.648Z,3.10
2019-06-01T21:27:45.053Z,2.80
2019-06-01T21:30:14.765Z,3.20
2019-06-01T21:32:43.867Z,3.03
2019-06-01T21:35:15.143Z,3.03
2019-06-01T21:37:42.133Z,2.90
2019-06-01T21:40:10.372Z,3.10
2019-06-01T21:42:40.666Z,2.93
2019-06-01T21:45:10.191Z,8.90
2019-06-01T21:47:38.577Z,2.97
2019-06-01T21:50:07.551Z,3.10
2019-06-01T21:52:35.715Z,2.90
2019-06-01T21:55:07.497Z,3.40
2019-06-01T21:57:35.655Z,2.97
2019-06-01T22:00:05.473Z,3.27
2019-06-01T22:02:33.892Z,3.03
2019-06-01T22:05:11.523Z,3.13
2019-06-01T22:07:45.548Z,3.00
2019-06-01T22:10:15.270Z,3.17
2019-06-01T22:12:43.491Z,3.10
2019-06-01T22:15:11.884Z,3.33
2019-06-01T22:17:40.083Z,3.50
2019-06-01T22:20:08.338Z,2.90
2019-06-01T22:22:36.562Z,2.97
2019-06-01T22:25:05.737Z,3.43
2019-06-01T22:27:33.954Z,3.37
2019-06-01T22:30:02.141Z,2.87
2019-06-01T22:32:31.811Z,3.50
2019-06-01T22:35:00.101Z,3.30
2019-06-01T22:37:28.361Z,3.17
2019-06-01T22:39:56.565Z,3.50
2019-06-01T22:42:24.718Z,3.30
2019-06-01T22:44:52.897Z,4.50
2019-06-01T22:47:22.395Z,3.50
2019-06-01T22:49:50.777Z,3.20
2019-06-01T22:52:18.955Z,3.40
2019-06-01T22:54:47.301Z,5.37
2019-06-01T22:57:15.509Z,8.20
2019-06-01T22:59:43.647Z,3.33
2019-06-01T23:02:11.805Z,4.10
2019-06-01T23:04:39.978Z,4.13
2019-06-01T23:07:08.158Z,3.50
2019-06-01T23:09:36.339Z,3.70
2019-06-01T23:12:04.625Z,4.10
2019-06-01T23:14:32.846Z,3.80
2019-06-01T23:17:01.017Z,3.60
2019-06-01T23:19:32.025Z,4.77
2019-06-01T23:22:00.342Z,6.50
2019-06-01T23:24:28.555Z,3.60
2019-06-01T23:26:56.708Z,3.43
2019-06-01T23:29:26.086Z,4.27
2019-06-01T23:31:54.415Z,3.37
2019-06-01T23:34:22.545Z,3.67
2019-06-01T23:36:54.920Z,3.80
2019-06-01T23:39:23.378Z,4.20
2019-06-01T23:41:52.623Z,3.60
2019-06-01T23:44:20.902Z,4.30
2019-06-01T23:46:49.147Z,3.67
2019-06-01T23:49:17.288Z,5.20
2019-06-01T23:51:45.446Z,4.33
2019-06-01T23:54:16.673Z,3.70
2019-06-01T23:56:44.829Z,4.13
2019-06-01T23:59:16.009Z,3.50
